Terminal Aerodrome Forecast
Issued by NWS Portland, OR

Home | Current Version | Previous Version | Text Only | Print | Product List | Glossary On
Versions: 1 2 3 4 5 6 7 8 9 10 11 12 13 14 15 16 17 18 19 20 21 22 23 24 25 26 27 28 29 30 31 32 33 34 35 36 37 38 39 40 41 42 43 44 45 46 47
000
FTUS46 KPQR 130732 AAA
TAFAST
TAF AMD
KAST 130732Z 1308/1406 21008G18KT P6SM -SHRA SCT015 BKN025
      TEMPO 1308/1312 BKN015
     FM132000 18013G22KT 4SM -RA BR BKN015 OVC025
     FM140000 21018G30KT 4SM -RA BR OVC015=

USA.gov is the U.S. government's official web portal to all federal, state and local government web resources and services.